Portada
METAR-TAF:

METAR-TAF

Aeroports :

Broome, Austràlia

latitud: 17-57S, longitud: 122-13E, altitud: 17 m

Observació

L'informe es va fer fa 20 minuts, a les 00:30 UTC
Vent 11 kt del Oest/Nord-Oest
Temperatura 32°C
Humitat 71%
Pressió 1010 hPa
Visibilitat 10 km o més
Escasses núvols a una alçada de 1900 ft

METAR: YBRM 020030Z 29011KT 9999 FEW019 32/26 Q1010

Hora: 08:50 (00:50 UTC)

Pronòstic

L'informe es va fer fa 1 hora i 48 minuts, a les 23:02 UTC
Pronòstic vàlid del 02 a les 00 UTC al 03 a les 00 UTC
Vent 12 kt del Oest
Visibilitat 10 km o més
Escasses núvols a una alçada de 2500 ft
A partir de les 02 a les 1500 UTC
Vent 8 kt del Oest
Visibilitat 10 km o més
Núvols disperses a una alçada de 1600 ft

TAF: YBRM 012302Z 0200/0300 28012KT 9999 FEW025 FM021500 28008KT 9999 SCT016

Observacions i pronòstics meteorològics de més de 4000 aeroports (METAR i TAF).

Les estacions disponibles són els punts grocs i vermells al mapa.

Posi el ratolí al punt desitjat per veure el nom de l'estació.

Feu clic per veure les observacions i els pronòstics meteorològics.

Per canviar el mapa: feu clic els botons verds amb una creu de color negre per apropar; al botó verd amb un guió per allunyar la imatge; o en les fletxes verdes per a mapes adjacents.


METAR-TAF: